createdAt,value
2022-12-29T12:13:43.394Z,10.8
2022-12-29T12:27:50.011Z,11.2
2022-12-29T12:41:55.601Z,10.7
2022-12-29T12:56:04.302Z,10.8
2022-12-29T13:10:13.806Z,10.9
2022-12-29T13:24:22.757Z,10.5
2022-12-29T13:38:29.984Z,9.3
2022-12-29T13:52:37.201Z,9
2022-12-29T14:06:47.135Z,8.8
2022-12-29T14:20:52.681Z,8.8
2022-12-29T14:35:02.045Z,9.3
2022-12-29T14:49:13.464Z,9.3
2022-12-29T15:03:25.740Z,9.3
2022-12-29T15:17:34.600Z,8.8
2022-12-29T15:31:46.253Z,8.8
2022-12-29T15:45:54.068Z,8.6
2022-12-29T16:00:03.742Z,7.8
2022-12-29T16:14:05.823Z,7.4
2022-12-29T16:28:14.583Z,7.1
2022-12-29T16:42:22.516Z,7.1
2022-12-29T16:56:28.383Z,7.2
2022-12-29T17:10:36.747Z,7.1
2022-12-29T17:24:47.917Z,7.5
2022-12-29T17:38:58.499Z,7.6
2022-12-29T17:53:08.924Z,7.1
2022-12-29T18:07:19.582Z,6.9
2022-12-29T18:21:26.180Z,6.8
2022-12-29T18:35:31.175Z,6.7
2022-12-29T18:49:39.546Z,6.8
2022-12-29T19:03:46.048Z,7
2022-12-29T19:18:08.513Z,7
2022-12-29T19:32:02.782Z,6.9
2022-12-29T19:46:03.377Z,6.8
2022-12-29T20:00:05.845Z,6.9
2022-12-29T20:14:14.963Z,7
2022-12-29T20:28:26.058Z,6.8
2022-12-29T20:42:32.664Z,6.7
2022-12-29T20:56:37.680Z,6.6
2022-12-29T21:10:48.060Z,6.5
2022-12-29T21:24:55.641Z,6.4
2022-12-29T21:39:03.748Z,6.3
2022-12-29T21:53:12.162Z,6.1
2022-12-29T22:07:21.697Z,6
2022-12-29T22:21:27.894Z,5.8
2022-12-29T22:35:41.198Z,5.7
2022-12-29T22:49:47.539Z,5.6
2022-12-29T23:04:05.948Z,5.5
2022-12-29T23:18:03.240Z,5.6
2022-12-29T23:32:14.761Z,5.8
2022-12-29T23:46:19.731Z,5.5
